Time;durP1;ratioP1;P1;durP2;ratioP2;P2;SDS_P1;SDS_P2;PMS_P1;PMS_P2;Temp;Humidity;BMP_temperature;BMP_pressure;BME280_temperature;BME280_humidity;BME280_pressure;Samples;Min_cycle;Max_cycle;Signal;HPM_P1;HPM_P2
2022/03/25 00:00:37;;;;;;;0.93;0.93;;;9.00;77.00;;;;;;4952275;29;20118;-62
2022/03/25 00:03:07;;;;;;;0.60;0.60;;;8.60;79.80;;;;;;4952762;29;20046;-62
2022/03/25 00:05:32;;;;;;;2.65;2.05;;;8.30;81.40;;;;;;4952701;28;20057;-63
2022/03/25 00:07:58;;;;;;;11.45;2.92;;;8.20;82.30;;;;;;4952222;29;20035;-62
2022/03/25 00:10:24;;;;;;;2.63;1.33;;;8.10;82.80;;;;;;4952028;29;20380;-63
2022/03/25 00:12:50;;;;;;;3.72;3.38;;;8.20;83.30;;;;;;4952636;29;20094;-62
2022/03/25 00:15:16;;;;;;;2.83;2.63;;;8.20;82.50;;;;;;4952378;28;20054;-62
2022/03/25 00:17:42;;;;;;;0.98;0.93;;;8.30;81.90;;;;;;4951496;29;20062;-63
2022/03/25 00:20:09;;;;;;;2.55;2.22;;;8.30;81.90;;;;;;4951348;29;20027;-62
2022/03/25 00:22:35;;;;;;;3.70;2.65;;;8.30;80.90;;;;;;4935482;29;20023;-62
2022/03/25 00:25:05;;;;;;;6.15;2.38;;;8.30;80.90;;;;;;4951172;28;20031;-62
2022/03/25 00:27:35;;;;;;;1.05;1.05;;;8.30;81.40;;;;;;4950930;29;20472;-63
2022/03/25 00:30:03;;;;;;;2.92;2.28;;;8.10;84.30;;;;;;4951891;29;20027;-62
2022/03/25 00:32:28;;;;;;;3.47;1.58;;;8.00;85.10;;;;;;4934868;29;20098;-62
2022/03/25 00:34:54;;;;;;;2.30;1.35;;;7.90;85.70;;;;;;4952132;28;20028;-62
2022/03/25 00:37:20;;;;;;;5.57;2.97;;;7.80;88.10;;;;;;4952401;29;20086;-62
2022/03/25 00:39:46;;;;;;;1.25;0.98;;;7.60;90.00;;;;;;4952225;29;20290;-62
2022/03/25 00:42:13;;;;;;;6.15;4.13;;;7.50;90.70;;;;;;4952643;29;20098;-62
2022/03/25 00:44:40;;;;;;;1.10;1.02;;;7.60;90.80;;;;;;4952358;28;20082;-63
2022/03/25 00:47:06;;;;;;;0.47;0.47;;;7.60;91.00;;;;;;4952277;29;20028;-63
2022/03/25 00:49:32;;;;;;;3.70;2.30;;;7.60;90.90;;;;;;4951933;29;20034;-63
2022/03/25 00:51:58;;;;;;;3.13;2.10;;;7.60;90.60;;;;;;4952025;29;20035;-63
2022/03/25 00:54:24;;;;;;;0.93;0.93;;;7.70;90.40;;;;;;4951904;28;20036;-63
2022/03/25 00:56:50;;;;;;;1.38;1.27;;;7.70;90.20;;;;;;4951948;29;20097;-62
2022/03/25 00:59:18;;;;;;;4.43;1.48;;;7.70;89.40;;;;;;4952036;29;20538;-63
2022/03/25 01:01:44;;;;;;;5.53;3.03;;;7.60;86.80;;;;;;4934954;28;20031;-63
2022/03/25 01:04:10;;;;;;;1.92;1.77;;;7.60;86.40;;;;;;4955079;29;20487;-62
2022/03/25 01:06:36;;;;;;;7.72;3.83;;;7.60;86.20;;;;;;4955696;28;20035;-63
2022/03/25 01:09:03;;;;;;;31.20;3.70;;;7.60;85.90;;;;;;4955314;29;20506;-63
2022/03/25 01:11:28;;;;;;;3.63;2.42;;;7.70;86.20;;;;;;4954731;29;20023;-62
2022/03/25 01:13:54;;;;;;;2.38;2.17;;;7.60;85.80;;;;;;4954484;29;20586;-62
2022/03/25 01:16:20;;;;;;;3.78;3.45;;;7.60;85.90;;;;;;4954433;28;20041;-63
2022/03/25 01:18:46;;;;;;;19.67;2.55;;;7.60;86.00;;;;;;4955237;28;20106;-62
2022/03/25 01:21:12;;;;;;;0.65;0.65;;;7.60;86.10;;;;;;4955553;29;20480;-62
2022/03/25 01:23:37;;;;;;;1.83;1.23;;;7.60;86.20;;;;;;4954499;29;20043;-62
2022/03/25 01:26:04;;;;;;;4.93;2.50;;;7.60;86.10;;;;;;4955436;28;20091;-62
2022/03/25 01:28:34;;;;;;;11.02;3.63;;;7.60;86.20;;;;;;4953999;29;20055;-62
2022/03/25 01:31:03;;;;;;;2.80;2.60;;;7.60;86.50;;;;;;4955578;29;20030;-63
2022/03/25 01:33:30;;;;;;;1.05;1.02;;;7.50;86.40;;;;;;4954221;29;20070;-62
2022/03/25 01:35:59;;;;;;;3.22;2.95;;;7.60;86.70;;;;;;4937959;29;20470;-62
2022/03/25 01:38:27;;;;;;;6.20;3.63;;;7.50;86.60;;;;;;4953674;29;20525;-62
2022/03/25 01:40:54;;;;;;;0.88;0.88;;;7.50;86.80;;;;;;4954984;29;20403;-62
2022/03/25 01:43:20;;;;;;;4.53;3.47;;;7.50;86.50;;;;;;4955400;29;20538;-62
2022/03/25 01:45:46;;;;;;;0.30;0.30;;;7.50;86.10;;;;;;4955089;28;20066;-62
2022/03/25 01:48:16;;;;;;;17.27;3.20;;;7.60;86.10;;;;;;4955241;29;20075;-62
2022/03/25 01:50:46;;;;;;;3.83;2.38;;;7.60;86.50;;;;;;4954077;29;20116;-62
2022/03/25 01:53:24;;;;;;;4.30;3.72;;;7.60;86.60;;;;;;4953884;29;20498;-62
2022/03/25 01:56:01;;;;;;;2.75;2.55;;;7.50;86.50;;;;;;4954934;28;20079;-62
2022/03/25 01:58:32;;;;;;;2.92;2.70;;;7.50;86.80;;;;;;4954921;29;20063;-62
2022/03/25 02:01:02;;;;;;;1.60;1.50;;;7.60;86.90;;;;;;4954639;29;20563;-62
2022/03/25 02:03:28;;;;;;;2.75;2.30;;;7.50;87.20;;;;;;4954866;28;20035;-62
2022/03/25 02:05:54;;;;;;;17.08;4.78;;;7.40;87.60;;;;;;4931794;29;20038;-62
2022/03/25 02:08:20;;;;;;;4.85;4.38;;;7.40;87.90;;;;;;4933208;29;20031;-61
2022/03/25 02:10:46;;;;;;;3.60;2.47;;;7.30;88.10;;;;;;4954588;29;20034;-62
2022/03/25 02:13:12;;;;;;;1.70;1.60;;;7.30;88.40;;;;;;4954742;29;20519;-61
2022/03/25 02:15:41;;;;;;;4.18;2.35;;;7.20;88.80;;;;;;4945415;28;20027;-62
2022/03/25 02:18:14;;;;;;;9.75;1.58;;;7.20;88.90;;;;;;4935482;29;20042;-62
2022/03/25 02:20:43;;;;;;;0.65;0.65;;;7.10;89.50;;;;;;4918567;29;20476;-62
2022/03/25 02:23:09;;;;;;;0.70;0.70;;;7.10;89.60;;;;;;4919054;29;20042;-62
2022/03/25 02:25:36;;;;;;;1.88;1.73;;;7.00;90.00;;;;;;4936860;29;20634;-62
2022/03/25 02:28:04;;;;;;;1.10;1.02;;;7.00;90.10;;;;;;4954167;29;20070;-62
2022/03/25 02:30:33;;;;;;;1.73;1.52;;;6.90;90.20;;;;;;4921529;29;20035;-62
2022/03/25 02:33:02;;;;;;;3.22;3.03;;;6.90;90.40;;;;;;4954753;29;20027;-62
2022/03/25 02:35:43;;;;;;;3.42;2.63;;;6.80;90.60;;;;;;4921701;29;20119;-63
2022/03/25 02:38:13;;;;;;;1.45;1.35;;;6.80;90.80;;;;;;4936872;28;20450;-62
2022/03/25 02:40:39;;;;;;;4.55;2.50;;;6.80;91.00;;;;;;4932737;29;20035;-62
2022/03/25 02:43:05;;;;;;;1.40;1.30;;;6.70;91.30;;;;;;4918021;29;20130;-62
2022/03/25 02:45:32;;;;;;;1.73;1.60;;;6.70;91.40;;;;;;4918099;29;20031;-62
2022/03/25 02:48:01;;;;;;;3.97;2.20;;;6.60;91.50;;;;;;4934519;29;20067;-63
2022/03/25 02:50:26;;;;;;;0.32;0.32;;;6.70;91.60;;;;;;4934523;29;20102;-62
2022/03/25 02:52:54;;;;;;;3.03;1.85;;;6.70;91.70;;;;;;4934555;29;20520;-62
2022/03/25 02:55:19;;;;;;;2.95;2.25;;;6.60;91.80;;;;;;4934621;29;20127;-62
2022/03/25 02:57:45;;;;;;;7.93;3.42;;;6.60;91.90;;;;;;4934751;29;20110;-62
2022/03/25 03:00:11;;;;;;;0.95;0.95;;;6.40;92.20;;;;;;4934377;29;20070;-62
2022/03/25 03:02:38;;;;;;;1.83;1.73;;;6.40;92.30;;;;;;4934450;29;20028;-63
2022/03/25 03:05:07;;;;;;;3.92;2.92;;;6.30;92.60;;;;;;4917606;29;20447;-62
2022/03/25 03:07:38;;;;;;;3.33;3.03;;;6.20;92.80;;;;;;4917411;29;20119;-62
2022/03/25 03:10:06;;;;;;;1.38;1.30;;;6.10;93.40;;;;;;4901777;29;20115;-62
2022/03/25 03:12:33;;;;;;;0.93;0.93;;;5.70;94.70;;;;;;4933866;29;20066;-62
2022/03/25 03:15:00;;;;;;;5.80;3.50;;;5.60;95.70;;;;;;4940522;29;20027;-62
2022/03/25 03:17:26;;;;;;;4.95;3.67;;;5.50;95.90;;;;;;4936293;29;20032;-62
2022/03/25 03:19:53;;;;;;;3.08;2.88;;;5.50;96.30;;;;;;4936158;29;20463;-62
2022/03/25 03:22:19;;;;;;;3.15;2.47;;;5.60;96.20;;;;;;4920444;29;20086;-62
2022/03/25 03:24:45;;;;;;;2.55;2.35;;;5.60;96.30;;;;;;4953432;29;20047;-62
2022/03/25 03:27:11;;;;;;;5.40;4.75;;;5.60;96.50;;;;;;4952808;28;20051;-62
2022/03/25 03:29:38;;;;;;;0.77;0.77;;;5.60;96.70;;;;;;4953200;29;20042;-62
2022/03/25 03:32:06;;;;;;;1.38;1.30;;;5.50;97.70;;;;;;4953110;29;20479;-62
2022/03/25 03:34:32;;;;;;;6.13;3.50;;;5.40;98.00;;;;;;4935465;29;20027;-61
2022/03/25 03:36:58;;;;;;;6.00;4.93;;;5.20;99.00;;;;;;4953195;29;20093;-62
2022/03/25 03:39:24;;;;;;;6.93;2.28;;;5.20;99.00;;;;;;4935654;29;20102;-62
2022/03/25 03:41:49;;;;;;;1.60;1.50;;;5.20;99.20;;;;;;4953063;29;20114;-62
2022/03/25 03:44:15;;;;;;;0.80;0.80;;;5.10;99.20;;;;;;4953108;29;20031;-62
2022/03/25 03:46:41;;;;;;;13.88;3.80;;;5.10;99.80;;;;;;4952904;29;20069;-62
2022/03/25 03:49:07;;;;;;;1.92;1.83;;;5.10;99.70;;;;;;4919352;29;20028;-62
2022/03/25 03:51:33;;;;;;;1.90;1.80;;;5.00;99.90;;;;;;4935972;29;20034;-62
2022/03/25 03:54:00;;;;;;;0.63;0.63;;;4.90;99.90;;;;;;4952828;29;20031;-62
2022/03/25 03:56:27;;;;;;;3.95;1.10;;;4.90;99.90;;;;;;4935348;29;20039;-62
2022/03/25 03:58:53;;;;;;;0.47;0.47;;;4.90;99.90;;;;;;4952475;29;20498;-62
2022/03/25 04:01:19;;;;;;;2.20;1.30;;;4.90;99.90;;;;;;4952640;29;20062;-63
2022/03/25 04:03:45;;;;;;;4.75;2.35;;;4.90;99.90;;;;;;4935177;29;20129;-62
2022/03/25 04:06:11;;;;;;;3.42;2.17;;;4.90;99.90;;;;;;4935153;28;20118;-63
2022/03/25 04:08:37;;;;;;;1.75;1.65;;;4.90;99.90;;;;;;4952546;29;20105;-62
2022/03/25 04:11:03;;;;;;;10.75;2.42;;;4.70;99.90;;;;;;4935507;29;20447;-62
2022/03/25 04:13:29;;;;;;;2.95;2.25;;;4.50;99.90;;;;;;4935329;29;20055;-62
2022/03/25 04:15:55;;;;;;;0.88;0.88;;;4.50;99.90;;;;;;4938823;29;20656;-62
2022/03/25 04:18:23;;;;;;;0.50;0.50;;;4.60;99.90;;;;;;4932890;29;20244;-62
2022/03/25 04:20:50;;;;;;;0.98;0.93;;;4.60;99.90;;;;;;4933370;29;20067;-62
2022/03/25 04:23:17;;;;;;;7.68;2.08;;;4.70;99.90;;;;;;4916159;29;20126;-62
2022/03/25 04:25:43;;;;;;;2.67;2.55;;;4.60;99.90;;;;;;4933157;29;20095;-62
2022/03/25 04:28:09;;;;;;;2.28;2.17;;;4.60;99.90;;;;;;4916138;29;20492;-62
2022/03/25 04:30:37;;;;;;;1.55;1.45;;;4.60;99.90;;;;;;4933074;29;20032;-62
2022/03/25 04:33:04;;;;;;;1.02;1.02;;;4.50;99.90;;;;;;4933146;29;20403;-62
2022/03/25 04:35:30;;;;;;;2.15;2.05;;;4.40;99.90;;;;;;4933073;29;20659;-62
2022/03/25 04:37:57;;;;;;;3.35;1.30;;;4.50;99.90;;;;;;4933879;29;20035;-62
2022/03/25 04:40:26;;;;;;;0.10;0.10;;;4.50;99.90;;;;;;4919671;29;20063;-62
2022/03/25 04:42:54;;;;;;;3.15;2.63;;;4.40;99.90;;;;;;4920071;29;20035;-62
2022/03/25 04:45:22;;;;;;;1.73;1.08;;;4.30;99.90;;;;;;4937026;29;20107;-62
2022/03/25 04:47:48;;;;;;;1.30;1.20;;;4.30;99.90;;;;;;4932258;29;20035;-62
2022/03/25 04:50:15;;;;;;;1.90;1.42;;;4.20;99.90;;;;;;4970016;28;20094;-62
2022/03/25 04:52:41;;;;;;;0.40;0.40;;;4.30;99.90;;;;;;4950024;29;20032;-62
2022/03/25 04:55:08;;;;;;;1.88;0.85;;;4.40;99.90;;;;;;4967528;28;20039;-62
2022/03/25 04:57:34;;;;;;;2.70;2.40;;;4.40;99.90;;;;;;4938672;29;20536;-63
2022/03/25 05:00:00;;;;;;;0.28;0.28;;;4.40;99.90;;;;;;4955666;29;20520;-63
2022/03/25 05:02:26;;;;;;;0.47;0.47;;;4.40;99.90;;;;;;4938263;29;20089;-63
2022/03/25 05:04:55;;;;;;;0.30;0.30;;;4.40;99.90;;;;;;4955353;29;20205;-64
2022/03/25 05:07:21;;;;;;;1.08;0.98;;;4.40;99.90;;;;;;4915330;29;20046;-63
2022/03/25 05:09:47;;;;;;;1.77;1.67;;;4.20;99.90;;;;;;4918771;29;20027;-63
2022/03/25 05:12:13;;;;;;;0.20;0.20;;;4.10;99.90;;;;;;4936546;29;20042;-63
2022/03/25 05:14:41;;;;;;;0.20;0.20;;;4.10;99.90;;;;;;4912954;28;20023;-63
2022/03/25 05:17:07;;;;;;;0.20;0.20;;;4.10;99.90;;;;;;4955027;28;20078;-63
2022/03/25 05:19:33;;;;;;;1.00;1.00;;;4.10;99.90;;;;;;4937949;29;20498;-63
2022/03/25 05:21:59;;;;;;;0.50;0.50;;;4.00;99.90;;;;;;4955397;28;20023;-62
2022/03/25 05:24:26;;;;;;;0.52;0.52;;;3.80;99.90;;;;;;4938192;28;20035;-63
2022/03/25 05:26:53;;;;;;;0.88;0.88;;;3.90;99.90;;;;;;4937967;29;20614;-65
2022/03/25 05:29:20;;;;;;;0.75;0.75;;;4.00;99.90;;;;;;4953410;29;20504;-63
2022/03/25 05:31:46;;;;;;;0.68;0.68;;;4.00;99.90;;;;;;4937982;29;20027;-63
2022/03/25 05:34:12;;;;;;;0.98;0.82;;;4.00;99.90;;;;;;4955119;29;20038;-62
2022/03/25 05:36:38;;;;;;;3.28;1.40;;;4.00;99.90;;;;;;4954969;28;20046;-63
2022/03/25 05:39:05;;;;;;;1.77;1.67;;;4.00;99.90;;;;;;4937785;29;20057;-62
2022/03/25 05:41:31;;;;;;;6.97;2.70;;;4.20;99.90;;;;;;4937626;29;20045;-63
2022/03/25 05:43:56;;;;;;;4.93;2.92;;;4.20;99.90;;;;;;4921789;29;20027;-62
2022/03/25 05:46:23;;;;;;;2.35;2.25;;;4.20;99.90;;;;;;4954815;29;20030;-62
2022/03/25 05:48:49;;;;;;;1.60;1.50;;;4.30;99.90;;;;;;4953772;28;20034;-61
2022/03/25 05:51:15;;;;;;;2.83;2.63;;;4.30;99.90;;;;;;4954745;29;20417;-62
2022/03/25 05:53:41;;;;;;;1.13;1.13;;;4.40;99.90;;;;;;4937545;29;20507;-61
2022/03/25 05:56:09;;;;;;;1.98;1.83;;;4.40;99.90;;;;;;4947378;28;20039;-61
2022/03/25 05:58:36;;;;;;;5.80;5.22;;;4.40;99.90;;;;;;4951405;29;20067;-62
2022/03/25 06:01:04;;;;;;;0.22;0.22;;;4.50;99.90;;;;;;4943559;28;20047;-63
2022/03/25 06:03:31;;;;;;;0.47;0.47;;;4.50;99.90;;;;;;4954354;28;20047;-63
2022/03/25 06:05:56;;;;;;;1.98;0.63;;;4.50;99.90;;;;;;4954774;29;20035;-63
2022/03/25 06:08:23;;;;;;;4.30;2.95;;;4.60;99.90;;;;;;4954236;29;20035;-62
2022/03/25 06:10:50;;;;;;;1.02;1.02;;;4.60;99.90;;;;;;4952972;29;20023;-62
2022/03/25 06:13:17;;;;;;;0.98;0.98;;;4.60;99.90;;;;;;4937151;29;20027;-63
2022/03/25 06:15:46;;;;;;;1.95;1.85;;;4.70;99.90;;;;;;4945903;29;20106;-61
2022/03/25 06:18:12;;;;;;;2.50;2.25;;;4.80;99.90;;;;;;4929702;28;20031;-62
2022/03/25 06:20:37;;;;;;;1.20;1.15;;;4.90;99.90;;;;;;4949097;28;20038;-62
2022/03/25 06:23:03;;;;;;;4.70;2.90;;;4.90;99.90;;;;;;4942098;29;20027;-62
2022/03/25 06:25:29;;;;;;;0.45;0.45;;;5.00;99.90;;;;;;4917566;29;20035;-62
2022/03/25 06:27:59;;;;;;;0.80;0.80;;;5.10;99.90;;;;;;4934852;29;20580;-63
2022/03/25 06:30:31;;;;;;;0.28;0.28;;;5.20;99.90;;;;;;4934068;29;20615;-64
2022/03/25 06:32:58;;;;;;;0.80;0.80;;;5.20;99.90;;;;;;4944102;29;20407;-62
2022/03/25 06:35:24;;;;;;;2.78;2.17;;;5.30;99.90;;;;;;4952630;28;20031;-63
2022/03/25 06:37:52;;;;;;;1.83;1.65;;;5.30;99.90;;;;;;4953952;29;20166;-63
2022/03/25 06:40:19;;;;;;;0.95;0.95;;;5.40;99.90;;;;;;4952403;29;20035;-62
2022/03/25 06:42:45;;;;;;;1.50;1.40;;;5.40;99.90;;;;;;4936640;29;20039;-63
2022/03/25 06:45:14;;;;;;;0.90;0.90;;;5.50;99.90;;;;;;4936660;29;20035;-62
2022/03/25 06:47:42;;;;;;;1.95;1.85;;;5.50;99.90;;;;;;4955735;28;20109;-63
2022/03/25 06:50:10;;;;;;;7.00;1.30;;;5.50;99.90;;;;;;4971217;28;20027;-63
2022/03/25 06:52:37;;;;;;;0.52;0.52;;;5.60;99.90;;;;;;4970885;28;20026;-62
2022/03/25 06:55:07;;;;;;;0.52;0.52;;;5.60;99.90;;;;;;4953133;28;20031;-63
2022/03/25 06:57:33;;;;;;;2.20;1.65;;;5.70;99.90;;;;;;4933496;29;20605;-63
2022/03/25 06:59:59;;;;;;;0.65;0.65;;;5.80;99.90;;;;;;4952967;28;20118;-63
2022/03/25 07:02:25;;;;;;;2.50;1.75;;;5.80;99.90;;;;;;4937900;29;20031;-63
2022/03/25 07:04:51;;;;;;;4.18;2.95;;;5.90;99.90;;;;;;4953315;28;20376;-63
2022/03/25 07:07:25;;;;;;;3.20;1.95;;;5.90;99.90;;;;;;4952009;29;20491;-63
2022/03/25 07:09:51;;;;;;;0.50;0.50;;;6.00;99.90;;;;;;4926684;29;20039;-63
2022/03/25 07:12:18;;;;;;;1.92;1.83;;;6.00;99.90;;;;;;4934338;29;20160;-63
2022/03/25 07:14:44;;;;;;;0.95;0.60;;;6.10;99.90;;;;;;4917117;29;20024;-63
2022/03/25 07:17:10;;;;;;;15.88;3.50;;;6.10;99.90;;;;;;4917093;29;20732;-63
2022/03/25 07:19:36;;;;;;;0.55;0.55;;;6.10;99.90;;;;;;4933621;29;20071;-63
2022/03/25 07:22:02;;;;;;;2.13;1.50;;;6.20;99.90;;;;;;4934430;29;20519;-63
2022/03/25 07:24:27;;;;;;;0.93;0.93;;;6.30;99.90;;;;;;4917059;29;20031;-63
2022/03/25 07:26:53;;;;;;;4.68;3.40;;;6.40;99.90;;;;;;4933653;29;20062;-63
2022/03/25 07:29:19;;;;;;;2.30;2.10;;;6.40;99.90;;;;;;4934029;29;20049;-62
2022/03/25 07:31:44;;;;;;;2.60;1.55;;;6.40;99.90;;;;;;4917991;29;20629;-62
2022/03/25 07:34:10;;;;;;;0.98;0.98;;;6.50;99.90;;;;;;4952617;29;20046;-62
2022/03/25 07:36:36;;;;;;;0.75;0.75;;;6.60;99.90;;;;;;4953024;29;20515;-63
2022/03/25 07:39:03;;;;;;;2.25;2.10;;;6.60;99.90;;;;;;4952625;28;20039;-63
2022/03/25 07:41:29;;;;;;;9.45;4.05;;;6.70;99.90;;;;;;4953089;29;20038;-63
2022/03/25 07:43:56;;;;;;;2.03;1.83;;;6.80;99.90;;;;;;4953108;29;20110;-63
2022/03/25 07:46:23;;;;;;;1.08;1.05;;;6.90;99.90;;;;;;4935694;29;20055;-63
2022/03/25 07:48:50;;;;;;;2.05;1.95;;;6.90;99.90;;;;;;4919508;29;20037;-63
2022/03/25 07:51:17;;;;;;;2.22;2.08;;;6.90;99.90;;;;;;4952861;29;20760;-63
2022/03/25 07:53:43;;;;;;;1.77;1.67;;;7.10;99.90;;;;;;4935717;29;20063;-63
2022/03/25 07:56:10;;;;;;;3.20;1.20;;;7.20;99.90;;;;;;4952108;29;20027;-63
2022/03/25 07:58:36;;;;;;;1.23;1.20;;;7.40;99.90;;;;;;4952559;29;20675;-63
2022/03/25 08:01:03;;;;;;;0.60;0.60;;;7.50;99.90;;;;;;4952824;29;20089;-63
2022/03/25 08:03:28;;;;;;;2.20;2.08;;;7.60;99.90;;;;;;4952522;29;20114;-63
2022/03/25 08:05:55;;;;;;;3.03;2.83;;;7.80;99.90;;;;;;4952568;29;20539;-63
2022/03/25 08:08:21;;;;;;;1.98;1.85;;;7.90;99.90;;;;;;4952005;29;20485;-62
2022/03/25 08:10:47;;;;;;;1.25;1.23;;;8.00;99.90;;;;;;4950100;29;20073;-63
2022/03/25 08:13:16;;;;;;;1.02;1.02;;;8.10;99.90;;;;;;4934383;29;20395;-66
2022/03/25 08:15:42;;;;;;;3.42;2.42;;;8.30;99.90;;;;;;4916429;29;20038;-54
2022/03/25 08:18:13;;;;;;;2.88;2.63;;;8.40;99.90;;;;;;4935673;29;20070;-64
2022/03/25 08:20:48;;;;;;;4.03;2.33;;;8.50;99.90;;;;;;4934154;29;20038;-63
2022/03/25 08:28:57;;;;;;;0.57;0.57;;;9.00;99.80;;;;;;4951198;29;20046;-62
2022/03/25 08:31:24;;;;;;;2.22;2.00;;;9.40;99.90;;;;;;4947749;29;20368;-62
2022/03/25 08:33:51;;;;;;;7.22;2.97;;;9.60;99.90;;;;;;4949866;29;20039;-63
2022/03/25 08:36:17;;;;;;;5.65;2.30;;;9.70;99.90;;;;;;4951483;28;20042;-63
2022/03/25 08:38:44;;;;;;;2.95;2.45;;;9.80;98.80;;;;;;4933700;29;20051;-65
2022/03/25 08:41:11;;;;;;;1.17;1.15;;;9.90;99.20;;;;;;4951512;29;20042;-63
2022/03/25 08:43:38;;;;;;;4.40;3.00;;;9.90;98.00;;;;;;4950248;29;20038;-63
2022/03/25 08:46:07;;;;;;;1.90;1.80;;;10.00;97.40;;;;;;4949753;28;20142;-64
2022/03/25 08:48:34;;;;;;;2.88;1.75;;;10.10;97.40;;;;;;4931079;29;20031;-63
2022/03/25 08:51:01;;;;;;;0.93;0.90;;;10.20;97.00;;;;;;4949184;29;20054;-62
2022/03/25 08:53:27;;;;;;;4.50;3.33;;;10.30;96.00;;;;;;4947462;29;20028;-62
2022/03/25 08:55:53;;;;;;;2.72;2.53;;;10.30;95.60;;;;;;4960971;23;20048;-63
2022/03/25 08:58:19;;;;;;;4.20;3.85;;;10.40;95.80;;;;;;4924511;28;20047;-64
2022/03/25 09:00:45;;;;;;;4.10;3.65;;;10.50;95.20;;;;;;4953839;28;20242;-63
2022/03/25 09:03:12;;;;;;;2.30;2.10;;;10.70;95.30;;;;;;4967633;28;20030;-62
2022/03/25 09:05:38;;;;;;;2.17;1.73;;;10.90;95.00;;;;;;4970130;28;20027;-64
2022/03/25 09:08:06;;;;;;;3.55;3.10;;;11.00;94.80;;;;;;4970882;28;20097;-64
2022/03/25 09:10:33;;;;;;;5.15;3.80;;;11.20;93.90;;;;;;4970076;28;20029;-63
2022/03/25 09:12:59;;;;;;;0.52;0.52;;;11.40;94.20;;;;;;4970822;28;20058;-63
2022/03/25 09:15:25;;;;;;;5.15;3.03;;;11.40;93.30;;;;;;4970304;28;20455;-63
2022/03/25 09:17:51;;;;;;;1.88;1.75;;;11.60;93.70;;;;;;4970957;28;20077;-64
2022/03/25 09:20:17;;;;;;;1.02;1.02;;;11.80;93.10;;;;;;4968981;28;20050;-64
2022/03/25 09:22:44;;;;;;;6.63;3.95;;;11.90;92.80;;;;;;4970986;28;20038;-64
2022/03/25 09:25:12;;;;;;;1.60;1.50;;;12.10;92.80;;;;;;4973565;28;20062;-65
2022/03/25 09:27:39;;;;;;;1.65;1.55;;;12.30;92.40;;;;;;4974664;28;20034;-64
2022/03/25 09:30:08;;;;;;;2.63;2.42;;;12.40;91.80;;;;;;4972415;28;20479;-64
2022/03/25 09:32:33;;;;;;;3.38;3.08;;;12.60;91.70;;;;;;4966535;28;20070;-63
2022/03/25 09:35:08;;;;;;;3.42;2.42;;;12.80;91.20;;;;;;4965270;28;20066;-63
2022/03/25 09:37:41;;;;;;;4.65;3.40;;;12.80;90.80;;;;;;4956687;28;20030;-64
2022/03/25 09:40:12;;;;;;;15.85;1.95;;;12.80;91.10;;;;;;4972837;28;20109;-65
2022/03/25 09:42:38;;;;;;;1.02;1.02;;;13.00;90.50;;;;;;4957035;28;20031;-64
2022/03/25 09:45:07;;;;;;;2.20;1.63;;;13.00;90.40;;;;;;4973420;28;20447;-63
2022/03/25 09:47:35;;;;;;;2.72;2.50;;;13.20;89.70;;;;;;4974003;28;20031;-64
2022/03/25 09:50:04;;;;;;;5.15;3.45;;;13.30;89.30;;;;;;4973347;28;20035;-63
2022/03/25 09:52:33;;;;;;;1.00;0.93;;;13.60;88.40;;;;;;4973485;28;20034;-63
2022/03/25 09:55:00;;;;;;;4.00;2.22;;;13.80;87.50;;;;;;4967820;28;20049;-63
2022/03/25 09:57:26;;;;;;;3.85;2.47;;;14.00;86.10;;;;;;4919886;29;20039;-63
2022/03/25 09:59:53;;;;;;;4.28;3.17;;;14.00;84.80;;;;;;4935248;29;20480;-63
2022/03/25 10:02:19;;;;;;;8.10;3.83;;;14.30;84.50;;;;;;4943620;29;20047;-63
2022/03/25 10:04:57;;;;;;;2.47;2.28;;;14.30;81.60;;;;;;4927999;29;20050;-63
2022/03/25 10:07:30;;;;;;;1.70;1.60;;;14.60;81.20;;;;;;4936736;29;20090;-64
2022/03/25 10:10:21;;;;;;;1.73;1.63;;;14.70;81.10;;;;;;4945641;29;20050;-65
2022/03/25 10:12:49;;;;;;;1.77;1.67;;;14.80;80.80;;;;;;4923480;29;20051;-65
2022/03/25 10:15:28;;;;;;;5.72;3.85;;;14.90;79.70;;;;;;4918036;29;20427;-66
2022/03/25 10:18:03;;;;;;;3.00;2.72;;;15.00;81.10;;;;;;4918078;29;20118;-64
2022/03/25 10:20:32;;;;;;;3.47;2.80;;;15.30;79.20;;;;;;4918487;29;20083;-64
2022/03/25 10:23:19;;;;;;;3.55;3.25;;;15.30;78.00;;;;;;4935321;29;20024;-63
2022/03/25 10:25:56;;;;;;;2.05;1.92;;;15.50;77.30;;;;;;4935088;29;20039;-65
2022/03/25 10:28:27;;;;;;;7.50;1.75;;;15.70;76.30;;;;;;4935195;29;20130;-65
2022/03/25 10:31:07;;;;;;;4.70;4.00;;;15.80;75.30;;;;;;4952078;29;20031;-65
2022/03/25 10:33:58;;;;;;;16.33;6.05;;;16.00;74.90;;;;;;4954218;28;20135;-65
2022/03/25 10:36:25;;;;;;;6.72;4.55;;;16.10;75.10;;;;;;4952644;28;20579;-66
2022/03/25 10:38:57;;;;;;;7.00;4.55;;;16.00;73.00;;;;;;4953809;29;20541;-66
2022/03/25 10:41:49;;;;;;;4.40;3.20;;;15.40;74.00;;;;;;4953466;29;20028;-66
2022/03/25 10:44:15;;;;;;;6.75;4.97;;;15.80;75.50;;;;;;4940271;29;20047;-65
2022/03/25 10:46:45;;;;;;;6.80;4.78;;;16.10;72.50;;;;;;4936331;29;20498;-65
2022/03/25 10:49:14;;;;;;;5.25;4.60;;;16.50;74.30;;;;;;4936813;29;20059;-66
2022/03/25 10:51:42;;;;;;;2.22;2.03;;;16.40;72.20;;;;;;4936919;29;20035;-64
2022/03/25 10:54:13;;;;;;;3.70;2.63;;;16.80;72.50;;;;;;4939560;29;20106;-64
2022/03/25 10:57:00;;;;;;;3.67;2.92;;;16.70;72.70;;;;;;4952539;29;20395;-66
2022/03/25 10:59:34;;;;;;;2.90;2.63;;;17.10;71.20;;;;;;4953504;29;20062;-57
2022/03/25 11:02:07;;;;;;;8.20;5.63;;;17.50;71.90;;;;;;4953615;29;20480;-64
2022/03/25 11:04:33;;;;;;;9.88;3.15;;;17.90;70.60;;;;;;4952426;29;20031;-64
2022/03/25 11:07:03;;;;;;;7.45;3.35;;;18.00;68.70;;;;;;4953298;29;20034;-64
2022/03/25 11:09:30;;;;;;;11.85;6.25;;;17.90;69.20;;;;;;4936763;29;20055;-63
2022/03/25 11:11:58;;;;;;;5.25;4.82;;;17.50;69.10;;;;;;4936429;29;20146;-65
2022/03/25 11:14:25;;;;;;;3.65;3.22;;;17.50;68.70;;;;;;4953454;29;20038;-65
2022/03/25 11:16:56;;;;;;;5.50;4.05;;;17.70;68.70;;;;;;4952070;29;20077;-64
2022/03/25 11:19:24;;;;;;;2.25;1.92;;;17.80;68.30;;;;;;4964654;28;20542;-62
2022/03/25 11:21:51;;;;;;;2.80;2.33;;;18.20;67.20;;;;;;4971451;28;20122;-62
2022/03/25 11:24:45;;;;;;;5.95;2.75;;;18.30;67.40;;;;;;4972767;28;20441;-62
2022/03/25 11:27:26;;;;;;;12.02;3.92;;;18.60;67.70;;;;;;4970986;28;20063;-63
2022/03/25 11:29:57;;;;;;;2.88;2.63;;;19.20;67.60;;;;;;4972520;28;20057;-65
2022/03/25 11:32:23;;;;;;;5.00;4.45;;;19.40;65.30;;;;;;4965397;28;20479;-65
2022/03/25 11:35:20;;;;;;;6.70;3.97;;;19.70;65.40;;;;;;4953139;29;20059;-67
2022/03/25 11:37:46;;;;;;;8.63;4.07;;;19.40;64.20;;;;;;4952861;29;20120;-64
2022/03/25 11:40:15;;;;;;;5.90;3.58;;;19.00;64.60;;;;;;4952717;29;20360;-66
2022/03/25 11:42:48;;;;;;;12.20;3.95;;;19.10;64.40;;;;;;4952810;29;20109;-62
2022/03/25 11:45:32;;;;;;;3.97;3.53;;;18.80;64.10;;;;;;4951705;29;20024;-63
2022/03/25 11:48:04;;;;;;;4.50;3.90;;;18.50;64.80;;;;;;4951996;28;20027;-68
2022/03/25 11:50:35;;;;;;;9.13;5.63;;;19.00;64.50;;;;;;4952624;29;20082;-63
2022/03/25 11:53:10;;;;;;;4.10;3.70;;;18.90;66.20;;;;;;4952575;29;20031;-66
2022/03/25 11:56:06;;;;;;;4.88;4.00;;;19.30;65.30;;;;;;4952798;29;20102;-65
2022/03/25 11:58:38;;;;;;;4.28;3.72;;;19.50;64.40;;;;;;4951095;29;20038;-65
2022/03/25 12:01:15;;;;;;;4.20;3.80;;;19.60;64.80;;;;;;4951558;29;20039;-65
2022/03/25 12:03:49;;;;;;;3.67;3.38;;;20.10;64.70;;;;;;4951137;29;20376;-65
2022/03/25 12:06:21;;;;;;;14.18;6.10;;;20.40;63.80;;;;;;4951377;29;20436;-66
2022/03/25 12:09:15;;;;;;;4.00;3.63;;;20.40;63.60;;;;;;4951922;29;20050;-64
2022/03/25 12:11:58;;;;;;;14.98;4.57;;;20.40;62.70;;;;;;4935452;29;20078;-64
2022/03/25 12:14:32;;;;;;;4.18;3.08;;;20.50;63.20;;;;;;4952525;28;20078;-63
2022/03/25 12:17:03;;;;;;;7.43;5.70;;;21.10;62.10;;;;;;4952140;29;20031;-63
2022/03/25 12:19:29;;;;;;;4.85;3.42;;;21.60;60.80;;;;;;4950434;29;20038;-64
2022/03/25 12:22:07;;;;;;;4.60;4.13;;;22.40;59.50;;;;;;4952508;29;20039;-65
2022/03/25 12:24:34;;;;;;;8.27;5.78;;;22.20;58.40;;;;;;4952587;29;20476;-64
2022/03/25 12:27:06;;;;;;;11.98;4.40;;;23.10;57.70;;;;;;4943741;29;20126;-64
2022/03/25 12:29:39;;;;;;;3.45;2.92;;;23.10;57.30;;;;;;4927214;29;20023;-63
2022/03/25 12:32:15;;;;;;;5.55;3.33;;;23.90;56.30;;;;;;4935526;29;20027;-60
2022/03/25 12:35:01;;;;;;;6.35;3.08;;;24.90;55.50;;;;;;4952109;29;20031;-56
2022/03/25 12:37:41;;;;;;;2.70;2.45;;;23.70;54.70;;;;;;4952143;29;20035;-64
2022/03/25 12:40:12;;;;;;;7.15;4.07;;;23.00;57.30;;;;;;4951423;29;20031;-66
2022/03/25 12:42:39;;;;;;;3.40;3.10;;;24.60;54.80;;;;;;4934903;29;20035;-64
2022/03/25 12:45:05;;;;;;;11.18;5.68;;;24.90;53.10;;;;;;4951739;29;20034;-64
2022/03/25 12:47:37;;;;;;;9.98;6.30;;;24.60;51.70;;;;;;4952202;29;20412;-64
2022/03/25 12:50:05;;;;;;;6.10;4.03;;;24.10;53.30;;;;;;4934645;29;20023;-63
2022/03/25 12:52:33;;;;;;;7.30;4.40;;;24.10;53.00;;;;;;4934853;29;20027;-65
2022/03/25 12:55:08;;;;;;;12.68;4.45;;;22.90;52.70;;;;;;4951728;29;20058;-65
2022/03/25 12:57:38;;;;;;;8.55;2.63;;;24.10;53.50;;;;;;4937288;28;20039;-65
2022/03/25 13:00:09;;;;;;;7.85;5.22;;;25.10;52.10;;;;;;4954597;29;20035;-64
2022/03/25 13:02:41;;;;;;;3.67;2.63;;;25.50;51.10;;;;;;4954563;29;20067;-64
2022/03/25 13:05:27;;;;;;;4.18;2.75;;;24.70;51.20;;;;;;4954119;29;20034;-65